createdAt,value
2023-03-06T00:01:32.660Z,-0.17
2023-03-06T00:04:07.445Z,-0.15
2023-03-06T00:06:39.830Z,-0.17
2023-03-06T00:09:12.148Z,-0.31
2023-03-06T00:11:44.461Z,-0.28
2023-03-06T00:14:16.791Z,-0.34
2023-03-06T00:16:49.821Z,-0.50
2023-03-06T00:19:22.291Z,-0.42
2023-03-06T00:21:54.579Z,-0.31
2023-03-06T00:24:26.888Z,-0.23
2023-03-06T00:26:59.473Z,-0.14
2023-03-06T00:29:31.840Z,-0.16
2023-03-06T00:32:05.517Z,-0.24
2023-03-06T00:34:39.441Z,-0.08
2023-03-06T00:37:13.247Z,0.00
2023-03-06T00:39:45.959Z,0.07
2023-03-06T00:42:19.115Z,0.12
2023-03-06T00:44:51.491Z,0.10
2023-03-06T00:47:24.433Z,0.13
2023-03-06T00:49:57.646Z,0.22
2023-03-06T00:52:29.958Z,0.25
2023-03-06T00:55:02.224Z,0.21
2023-03-06T00:57:34.731Z,0.07
2023-03-06T01:00:09.224Z,0.12
2023-03-06T01:02:42.386Z,0.02
2023-03-06T01:05:14.854Z,0.04
2023-03-06T01:07:47.178Z,0.21
2023-03-06T01:10:19.728Z,0.27
2023-03-06T01:12:53.457Z,0.11
2023-03-06T01:15:25.845Z,0.13
2023-03-06T01:17:58.866Z,0.09
2023-03-06T01:20:31.295Z,0.22
2023-03-06T01:23:04.216Z,0.22
2023-03-06T01:25:36.590Z,0.31
2023-03-06T01:28:08.877Z,0.44
2023-03-06T01:30:41.461Z,0.34
2023-03-06T01:33:14.461Z,0.45
2023-03-06T01:35:46.805Z,0.52
2023-03-06T01:38:19.432Z,0.50
2023-03-06T01:40:51.785Z,0.60
2023-03-06T01:43:28.278Z,0.45
2023-03-06T01:46:24.878Z,0.51
2023-03-06T01:49:00.695Z,0.55
2023-03-06T01:51:38.102Z,0.53
2023-03-06T01:54:15.575Z,0.59
2023-03-06T01:56:50.701Z,0.62
2023-03-06T01:59:26.162Z,0.65
2023-03-06T02:02:01.393Z,0.69
2023-03-06T02:04:37.184Z,0.71
2023-03-06T02:07:11.191Z,0.69
2023-03-06T02:09:43.537Z,0.61
2023-03-06T02:12:18.498Z,0.61
2023-03-06T02:14:51.310Z,0.57
2023-03-06T02:17:24.875Z,0.50
2023-03-06T02:20:03.748Z,0.45
2023-03-06T02:22:45.690Z,0.49
2023-03-06T02:25:33.071Z,0.28
2023-03-06T02:28:06.789Z,0.26
2023-03-06T02:30:39.887Z,0.31
2023-03-06T02:33:13.834Z,0.24
2023-03-06T02:35:50.972Z,0.15
2023-03-06T02:38:27.658Z,0.07
2023-03-06T02:41:03.621Z,0.03
2023-03-06T02:43:38.957Z,0.10
2023-03-06T02:46:11.613Z,0.03
2023-03-06T02:48:43.981Z,-0.06
2023-03-06T02:51:16.314Z,-0.01
2023-03-06T02:53:49.546Z,0.01
2023-03-06T02:56:22.842Z,-0.14
2023-03-06T02:58:55.205Z,-0.17
2023-03-06T03:01:27.652Z,-0.23
2023-03-06T03:03:59.980Z,-0.28
2023-03-06T03:06:33.281Z,-0.48
2023-03-06T03:09:06.716Z,-0.50
2023-03-06T03:11:40.892Z,-0.47
2023-03-06T03:14:13.346Z,-0.43
2023-03-06T03:16:45.628Z,-0.38
2023-03-06T03:19:17.938Z,-0.38
2023-03-06T03:21:50.762Z,-0.40
2023-03-06T03:24:26.752Z,-0.35
2023-03-06T03:27:01.279Z,-0.28
2023-03-06T03:29:34.115Z,-0.29
2023-03-06T03:32:06.962Z,-0.22
2023-03-06T03:34:39.348Z,-0.30
2023-03-06T03:37:11.724Z,-0.25
2023-03-06T03:39:44.056Z,-0.23
2023-03-06T03:42:17.907Z,-0.32
2023-03-06T03:44:50.301Z,-0.20
2023-03-06T03:47:25.628Z,-0.32
2023-03-06T03:49:57.943Z,-0.23
2023-03-06T03:52:30.686Z,-0.20
2023-03-06T03:55:03.685Z,-0.20
2023-03-06T03:57:38.493Z,-0.18
2023-03-06T04:00:15.882Z,-0.12
2023-03-06T04:03:02.755Z,-0.24
2023-03-06T04:05:39.675Z,-0.41
2023-03-06T04:08:13.748Z,-0.47
2023-03-06T04:10:48.789Z,-0.51
2023-03-06T04:13:23.521Z,-0.33
2023-03-06T04:15:56.467Z,-0.43
2023-03-06T04:18:29.515Z,-0.34
2023-03-06T04:21:06.394Z,-0.34
2023-03-06T04:23:39.280Z,-0.26
2023-03-06T04:26:11.952Z,-0.38
2023-03-06T04:28:44.937Z,-0.16
2023-03-06T04:31:17.662Z,-0.21
2023-03-06T04:33:50.220Z,-0.38
2023-03-06T04:36:26.862Z,-0.42
2023-03-06T04:39:02.344Z,-0.18
2023-03-06T04:41:36.520Z,-0.10
2023-03-06T04:44:09.582Z,-0.01
2023-03-06T04:46:41.910Z,0.04
2023-03-06T04:49:14.194Z,0.11
2023-03-06T04:51:46.482Z,0.15
2023-03-06T04:54:19.159Z,0.19
2023-03-06T04:56:51.702Z,0.16
2023-03-06T04:59:24.800Z,0.20
2023-03-06T05:01:57.496Z,0.24
2023-03-06T05:04:29.776Z,0.34
2023-03-06T05:07:02.061Z,0.39
2023-03-06T05:09:34.649Z,0.50
2023-03-06T05:12:07.460Z,0.54
2023-03-06T05:14:40.428Z,0.60
2023-03-06T05:17:12.750Z,0.64
2023-03-06T05:19:45.025Z,0.63
2023-03-06T05:22:17.298Z,0.64
2023-03-06T05:24:49.806Z,0.71
2023-03-06T05:27:22.070Z,0.61
2023-03-06T05:29:55.527Z,0.67
2023-03-06T05:32:28.335Z,0.61
2023-03-06T05:35:01.111Z,0.58
2023-03-06T05:37:34.402Z,0.68
2023-03-06T05:40:10.063Z,0.56
2023-03-06T05:42:42.424Z,0.73
2023-03-06T05:45:15.450Z,0.82
2023-03-06T05:47:47.744Z,0.88
2023-03-06T05:50:20.234Z,0.81
2023-03-06T05:52:52.609Z,0.74
2023-03-06T05:55:24.914Z,0.66
2023-03-06T05:57:57.522Z,0.72
2023-03-06T06:00:30.560Z,0.84
2023-03-06T06:03:02.875Z,0.89
2023-03-06T06:05:38.865Z,0.90
2023-03-06T06:08:11.108Z,0.99
2023-03-06T06:10:43.468Z,1.05
2023-03-06T06:13:15.817Z,1.09
2023-03-06T06:15:50.055Z,1.15
2023-03-06T06:18:22.365Z,1.03
2023-03-06T06:20:56.024Z,1.25
2023-03-06T06:23:28.396Z,1.33
2023-03-06T06:26:01.447Z,1.39
2023-03-06T06:28:34.684Z,1.31
2023-03-06T06:31:09.244Z,1.48
2023-03-06T06:33:41.840Z,1.52
2023-03-06T06:36:15.849Z,1.58
2023-03-06T06:38:48.431Z,1.66
2023-03-06T06:41:42.742Z,1.60
2023-03-06T06:44:15.346Z,1.49
2023-03-06T06:49:41.887Z,1.76
2023-03-06T06:52:15.026Z,1.92
2023-03-06T06:54:47.395Z,2.01
2023-03-06T06:57:19.806Z,2.10
2023-03-06T06:59:53.953Z,2.21
2023-03-06T07:02:27.393Z,2.40
2023-03-06T07:05:04.587Z,2.54
2023-03-06T07:07:37.978Z,2.75
2023-03-06T07:10:14.303Z,2.80
2023-03-06T07:12:46.691Z,2.96
2023-03-06T07:15:18.996Z,3.18
2023-03-06T07:17:52.152Z,3.41
2023-03-06T07:20:24.506Z,3.57
2023-03-06T07:22:56.833Z,3.82
2023-03-06T07:25:29.206Z,4.03
2023-03-06T07:28:02.115Z,4.25
2023-03-06T07:30:34.672Z,4.45
2023-03-06T07:33:07.788Z,4.62
2023-03-06T07:35:40.662Z,4.87
2023-03-06T07:38:13.632Z,5.04
2023-03-06T07:40:50.450Z,5.11
2023-03-06T07:43:22.835Z,5.25
2023-03-06T07:46:02.005Z,5.49
2023-03-06T07:48:35.799Z,5.58
2023-03-06T07:51:12.982Z,5.55
2023-03-06T07:53:45.419Z,5.62
2023-03-06T07:56:17.687Z,5.73
2023-03-06T07:58:50.009Z,5.75
2023-03-06T08:01:23.594Z,5.84
2023-03-06T08:03:57.018Z,5.90
2023-03-06T08:06:29.433Z,6.18
2023-03-06T08:09:01.962Z,6.44
2023-03-06T08:11:34.397Z,6.59
2023-03-06T08:14:06.689Z,6.72
2023-03-06T08:16:39.304Z,6.72
2023-03-06T08:19:12.314Z,6.74
2023-03-06T08:21:47.807Z,6.90
2023-03-06T08:24:20.159Z,6.80
2023-03-06T08:26:52.464Z,7.04
2023-03-06T08:29:24.791Z,7.07
2023-03-06T08:31:57.543Z,7.06
2023-03-06T08:34:31.130Z,7.27
2023-03-06T08:37:03.482Z,7.39
2023-03-06T08:39:35.787Z,7.47
2023-03-06T08:42:09.102Z,7.58
2023-03-06T08:44:41.997Z,7.78
2023-03-06T08:47:14.367Z,7.72
2023-03-06T08:49:47.372Z,7.54
2023-03-06T08:52:19.631Z,7.82
2023-03-06T08:54:51.915Z,7.72
2023-03-06T08:57:24.220Z,8.18
2023-03-06T08:59:56.661Z,7.99
2023-03-06T09:02:29.184Z,7.84
2023-03-06T09:05:04.869Z,8.23
2023-03-06T09:07:37.185Z,7.84
2023-03-06T09:10:13.803Z,7.95
2023-03-06T09:12:51.952Z,7.85
2023-03-06T09:15:25.653Z,8.00
2023-03-06T09:17:58.042Z,8.28
2023-03-06T09:20:31.056Z,8.25
2023-03-06T09:23:03.504Z,8.29
2023-03-06T09:25:35.833Z,8.21
2023-03-06T09:28:11.789Z,8.06
2023-03-06T09:30:44.646Z,8.38
2023-03-06T09:33:17.099Z,8.43
2023-03-06T09:35:52.304Z,8.34
2023-03-06T09:38:26.739Z,8.19
2023-03-06T09:41:05.470Z,8.57
2023-03-06T09:43:40.257Z,8.61
2023-03-06T09:46:20.381Z,8.71
2023-03-06T09:49:18.126Z,9.03
2023-03-06T09:52:02.605Z,8.93
2023-03-06T09:54:43.067Z,9.04
2023-03-06T09:57:22.193Z,9.09
2023-03-06T09:59:56.479Z,9.03
2023-03-06T10:02:35.576Z,8.88
2023-03-06T10:05:13.469Z,9.07
2023-03-06T10:07:52.547Z,9.14
2023-03-06T10:10:27.632Z,9.45
2023-03-06T10:13:05.776Z,9.61
2023-03-06T10:15:42.637Z,9.86
2023-03-06T10:18:15.019Z,10.05
2023-03-06T10:20:53.232Z,10.50
2023-03-06T10:23:41.314Z,10.42
2023-03-06T10:26:16.651Z,9.97
2023-03-06T10:29:00.351Z,10.31
2023-03-06T10:31:34.145Z,9.91
2023-03-06T10:34:20.666Z,10.05
2023-03-06T10:36:52.958Z,10.17
2023-03-06T10:39:27.677Z,10.47
2023-03-06T10:41:59.970Z,10.31
2023-03-06T10:44:32.687Z,10.60
2023-03-06T10:47:27.549Z,10.51
2023-03-06T10:50:01.757Z,10.60
2023-03-06T10:52:34.880Z,10.47
2023-03-06T10:55:24.330Z,10.41
2023-03-06T10:57:56.695Z,10.40
2023-03-06T11:00:31.657Z,10.64
2023-03-06T11:03:23.023Z,10.99
2023-03-06T11:06:10.024Z,11.01
2023-03-06T11:08:44.434Z,10.73
2023-03-06T11:11:36.707Z,10.96
2023-03-06T11:14:15.153Z,10.92
2023-03-06T11:16:52.264Z,11.36
2023-03-06T11:19:27.351Z,11.55
2023-03-06T11:22:01.983Z,10.70
2023-03-06T11:24:38.914Z,10.97
2023-03-06T11:27:22.171Z,10.93
2023-03-06T11:29:56.797Z,11.23
2023-03-06T11:32:32.952Z,11.31
2023-03-06T11:35:11.655Z,11.39
2023-03-06T11:37:50.549Z,11.31
2023-03-06T11:40:27.983Z,11.57
2023-03-06T11:43:14.520Z,11.71
2023-03-06T11:45:54.895Z,11.64
2023-03-06T11:48:35.070Z,11.86
2023-03-06T11:51:14.270Z,12.08
2023-03-06T11:53:47.462Z,12.02
2023-03-06T11:56:31.776Z,11.85
2023-03-06T11:59:37.793Z,11.47
2023-03-06T12:02:30.579Z,11.59
2023-03-06T12:05:21.926Z,11.62
2023-03-06T12:08:06.816Z,11.59
2023-03-06T12:10:51.453Z,11.49
2023-03-06T12:13:38.326Z,11.23
2023-03-06T12:16:34.792Z,10.61
2023-03-06T12:19:24.239Z,10.32
2023-03-06T12:22:09.530Z,10.45
2023-03-06T12:24:57.268Z,9.93
2023-03-06T12:27:37.941Z,10.01
2023-03-06T12:30:33.396Z,10.10
2023-03-06T12:33:19.995Z,10.12
2023-03-06T12:36:03.362Z,10.11
2023-03-06T12:38:58.789Z,10.23
2023-03-06T12:41:57.446Z,9.90
2023-03-06T12:44:48.071Z,9.88
2023-03-06T12:47:23.366Z,9.92
2023-03-06T12:50:01.986Z,9.82
2023-03-06T12:52:35.266Z,9.90
2023-03-06T12:55:14.426Z,9.98
2023-03-06T12:57:48.051Z,9.94
2023-03-06T13:01:04.172Z,10.03
2023-03-06T13:03:58.402Z,10.00
2023-03-06T13:06:51.070Z,10.29
2023-03-06T13:09:34.964Z,10.38
2023-03-06T13:12:22.538Z,10.79
2023-03-06T13:14:57.040Z,11.02
2023-03-06T13:17:35.054Z,11.21
2023-03-06T13:20:29.091Z,10.91
2023-03-06T13:23:39.069Z,10.96
2023-03-06T13:26:48.890Z,10.60
2023-03-06T13:30:01.123Z,10.13
2023-03-06T13:32:35.743Z,10.18
2023-03-06T13:35:48.182Z,10.19
2023-03-06T13:38:34.537Z,9.90
2023-03-06T13:41:52.990Z,9.53
2023-03-06T13:44:46.192Z,9.48
2023-03-06T13:48:10.995Z,9.50
2023-03-06T13:50:44.545Z,9.40
2023-03-06T13:53:49.549Z,9.37
2023-03-06T13:57:13.988Z,9.41
2023-03-06T14:00:28.473Z,9.44
2023-03-06T14:03:39.216Z,9.45
2023-03-06T14:06:48.806Z,9.56
2023-03-06T14:09:28.687Z,9.54
2023-03-06T14:12:06.417Z,9.53
2023-03-06T14:14:42.479Z,9.36
2023-03-06T14:17:26.336Z,9.10
2023-03-06T14:20:04.661Z,9.23
2023-03-06T14:22:36.987Z,9.27
2023-03-06T14:25:17.641Z,9.19
2023-03-06T14:27:51.647Z,9.06
2023-03-06T14:30:26.285Z,8.94
2023-03-06T14:32:59.445Z,9.09
2023-03-06T14:35:33.670Z,9.04
2023-03-06T14:38:07.384Z,9.11
2023-03-06T14:40:43.542Z,9.06
2023-03-06T14:43:20.258Z,9.19
2023-03-06T14:45:55.229Z,9.40
2023-03-06T14:48:38.753Z,9.38
2023-03-06T14:51:17.714Z,9.40
2023-03-06T14:53:52.164Z,9.01
2023-03-06T14:56:26.079Z,9.15
2023-03-06T14:59:01.599Z,9.19
2023-03-06T15:01:36.616Z,8.98
2023-03-06T15:04:19.756Z,8.96
2023-03-06T15:06:53.605Z,8.84
2023-03-06T15:09:29.904Z,9.02
2023-03-06T15:12:06.360Z,8.92
2023-03-06T15:14:40.877Z,8.94
2023-03-06T15:17:22.975Z,8.93
2023-03-06T15:19:58.255Z,9.10
2023-03-06T15:22:36.655Z,9.02
2023-03-06T15:25:19.885Z,9.10
2023-03-06T15:27:54.592Z,9.03
2023-03-06T15:30:28.879Z,9.07
2023-03-06T15:33:23.185Z,9.02
2023-03-06T15:35:57.699Z,9.04
2023-03-06T15:38:34.997Z,8.76
2023-03-06T15:41:21.248Z,8.63
2023-03-06T15:43:53.668Z,8.69
2023-03-06T15:46:26.320Z,8.58
2023-03-06T15:49:03.157Z,8.51
2023-03-06T15:51:36.302Z,8.51
2023-03-06T15:54:12.410Z,8.63
2023-03-06T15:56:46.664Z,8.40
2023-03-06T15:59:24.110Z,8.42
2023-03-06T16:01:57.038Z,8.47
2023-03-06T16:04:29.517Z,8.37
2023-03-06T16:07:02.590Z,8.50
2023-03-06T16:09:35.093Z,8.33
2023-03-06T16:12:15.234Z,8.20
2023-03-06T16:14:48.786Z,8.32
2023-03-06T16:17:21.160Z,8.39
2023-03-06T16:19:53.484Z,8.27
2023-03-06T16:22:26.500Z,8.20
2023-03-06T16:24:58.784Z,7.88
2023-03-06T16:27:31.110Z,7.93
2023-03-06T16:30:04.159Z,7.96
2023-03-06T16:32:36.565Z,7.87
2023-03-06T16:35:09.849Z,7.88
2023-03-06T16:37:42.978Z,7.87
2023-03-06T16:40:19.254Z,7.91
2023-03-06T16:42:54.086Z,7.84
2023-03-06T16:45:27.366Z,7.89
2023-03-06T16:48:00.430Z,7.83
2023-03-06T16:50:37.331Z,7.64
2023-03-06T16:53:10.417Z,7.54
2023-03-06T16:55:42.847Z,7.66
2023-03-06T16:58:15.297Z,7.63
2023-03-06T17:00:47.705Z,7.55
2023-03-06T17:03:20.062Z,7.47
2023-03-06T17:05:52.389Z,7.43
2023-03-06T17:08:25.358Z,7.34
2023-03-06T17:10:57.862Z,7.34
2023-03-06T17:13:30.157Z,7.18
2023-03-06T17:16:02.811Z,7.18
2023-03-06T17:18:35.430Z,7.26
2023-03-06T17:21:08.025Z,7.33
2023-03-06T17:23:41.045Z,7.30
2023-03-06T17:26:15.433Z,7.21
2023-03-06T17:28:48.026Z,7.27
2023-03-06T17:31:22.196Z,7.17
2023-03-06T17:33:58.502Z,7.15
2023-03-06T17:36:31.497Z,7.09
2023-03-06T17:39:05.731Z,7.10
2023-03-06T17:41:38.214Z,7.00
2023-03-06T17:44:11.424Z,7.14
2023-03-06T17:46:44.047Z,6.95
2023-03-06T17:49:18.764Z,7.01
2023-03-06T17:51:51.339Z,6.93
2023-03-06T17:54:25.475Z,7.07
2023-03-06T17:57:00.233Z,7.18
2023-03-06T17:59:33.878Z,7.14
2023-03-06T18:02:06.579Z,7.17
2023-03-06T18:04:39.072Z,7.12
2023-03-06T18:07:11.385Z,7.13
2023-03-06T18:09:44.481Z,6.97
2023-03-06T18:12:16.972Z,6.72
2023-03-06T18:14:50.011Z,6.60
2023-03-06T18:17:22.310Z,6.61
2023-03-06T18:19:56.070Z,6.64
2023-03-06T18:22:28.380Z,6.56
2023-03-06T18:25:02.504Z,6.48
2023-03-06T18:27:35.434Z,6.51
2023-03-06T18:30:08.965Z,6.45
2023-03-06T18:32:41.355Z,6.50
2023-03-06T18:35:13.723Z,6.43
2023-03-06T18:37:46.086Z,6.44
2023-03-06T18:40:19.365Z,6.32
2023-03-06T18:42:51.913Z,6.43
2023-03-06T18:45:24.192Z,6.50
2023-03-06T18:47:56.583Z,6.40
2023-03-06T18:50:28.870Z,6.54
2023-03-06T18:53:01.351Z,6.52
2023-03-06T18:55:34.524Z,6.47
2023-03-06T18:58:07.434Z,6.54
2023-03-06T19:00:39.839Z,6.51
2023-03-06T19:03:12.212Z,6.58
2023-03-06T19:05:46.515Z,6.64
2023-03-06T19:08:18.988Z,6.66
2023-03-06T19:10:51.934Z,6.61
2023-03-06T19:13:24.449Z,6.67
2023-03-06T19:15:57.235Z,6.72
2023-03-06T19:18:30.258Z,6.79
2023-03-06T19:21:13.956Z,6.66
2023-03-06T19:23:46.822Z,6.66
2023-03-06T19:26:20.646Z,6.69
2023-03-06T19:28:52.975Z,6.70
2023-03-06T19:31:27.254Z,6.68
2023-03-06T19:33:59.765Z,6.89
2023-03-06T19:36:33.990Z,6.85
2023-03-06T19:39:07.232Z,6.86
2023-03-06T19:41:40.164Z,6.84
2023-03-06T19:44:13.814Z,6.74
2023-03-06T19:46:46.136Z,6.72
2023-03-06T19:49:21.001Z,6.67
2023-03-06T19:51:53.382Z,6.74
2023-03-06T19:54:26.172Z,6.73
2023-03-06T19:56:59.140Z,6.69
2023-03-06T19:59:31.574Z,6.60
2023-03-06T20:02:03.883Z,6.63
2023-03-06T20:04:36.743Z,6.64
2023-03-06T20:07:09.080Z,6.57
2023-03-06T20:09:41.427Z,6.66
2023-03-06T20:12:14.708Z,6.47
2023-03-06T20:14:47.422Z,6.42
2023-03-06T20:17:19.719Z,6.46
2023-03-06T20:19:52.222Z,6.61
2023-03-06T20:22:24.569Z,6.48
2023-03-06T20:24:56.890Z,6.50
2023-03-06T20:27:29.790Z,6.54
2023-03-06T20:30:02.371Z,6.60
2023-03-06T20:32:35.336Z,6.52
2023-03-06T20:35:08.249Z,6.39
2023-03-06T20:37:40.758Z,6.52
2023-03-06T20:40:13.379Z,6.42
2023-03-06T20:42:46.364Z,6.40
2023-03-06T20:45:18.698Z,6.36
2023-03-06T20:47:51.397Z,6.35
2023-03-06T20:50:24.872Z,6.30
2023-03-06T20:52:58.229Z,6.14
2023-03-06T20:55:30.575Z,6.25
2023-03-06T20:58:03.493Z,6.38
2023-03-06T21:00:35.805Z,6.21
2023-03-06T21:03:08.110Z,6.06
2023-03-06T21:05:40.667Z,6.04
2023-03-06T21:08:13.162Z,6.04
2023-03-06T21:10:45.654Z,6.13
2023-03-06T21:13:19.137Z,6.07
2023-03-06T21:15:51.824Z,6.18
2023-03-06T21:18:24.116Z,6.34
2023-03-06T21:20:56.393Z,6.15
2023-03-06T21:23:28.726Z,6.24
2023-03-06T21:26:01.504Z,6.16
2023-03-06T21:28:34.481Z,6.36
2023-03-06T21:31:08.369Z,6.15
2023-03-06T21:33:41.202Z,6.26
2023-03-06T21:36:13.672Z,6.33
2023-03-06T21:38:46.946Z,6.24
2023-03-06T21:41:23.388Z,6.41
2023-03-06T21:43:57.672Z,6.37
2023-03-06T21:46:30.098Z,6.47
2023-03-06T21:49:03.978Z,6.43
2023-03-06T21:51:36.342Z,6.36
2023-03-06T21:54:09.049Z,6.28
2023-03-06T21:56:41.364Z,6.37
2023-03-06T21:59:14.408Z,6.33
2023-03-06T22:01:46.970Z,6.36
2023-03-06T22:04:19.347Z,6.37
2023-03-06T22:06:51.670Z,6.48
2023-03-06T22:09:23.970Z,6.41
2023-03-06T22:11:56.615Z,6.32
2023-03-06T22:14:29.618Z,6.43
2023-03-06T22:17:02.262Z,6.39
2023-03-06T22:19:34.698Z,6.56
2023-03-06T22:22:07.911Z,6.47
2023-03-06T22:24:41.005Z,6.51
2023-03-06T22:27:13.269Z,6.55
2023-03-06T22:29:46.257Z,6.39
2023-03-06T22:32:18.692Z,6.33
2023-03-06T22:34:50.975Z,6.30
2023-03-06T22:37:23.263Z,6.40
2023-03-06T22:39:55.520Z,6.19
2023-03-06T22:42:27.962Z,6.29
2023-03-06T22:45:00.991Z,6.32
2023-03-06T22:47:35.552Z,6.47
2023-03-06T22:50:09.285Z,6.39
2023-03-06T22:52:41.556Z,6.44
2023-03-06T22:55:14.083Z,6.39
2023-03-06T22:57:46.351Z,6.33
2023-03-06T23:00:19.854Z,6.26
2023-03-06T23:02:52.158Z,6.31
2023-03-06T23:05:24.463Z,6.24
2023-03-06T23:07:56.774Z,6.15
2023-03-06T23:10:29.001Z,6.19
2023-03-06T23:13:19.922Z,6.16
2023-03-06T23:16:11.885Z,6.11
2023-03-06T23:19:03.742Z,6.14
2023-03-06T23:21:54.548Z,6.14
2023-03-06T23:24:45.319Z,6.24
2023-03-06T23:27:18.639Z,6.22
2023-03-06T23:29:54.586Z,6.25
2023-03-06T23:32:27.621Z,6.17
2023-03-06T23:35:00.149Z,6.20
2023-03-06T23:37:33.005Z,6.14
2023-03-06T23:40:08.630Z,6.13
2023-03-06T23:42:40.961Z,6.15
2023-03-06T23:45:13.269Z,6.21
2023-03-06T23:47:46.448Z,6.17
2023-03-06T23:50:19.042Z,6.15
2023-03-06T23:52:51.780Z,6.13
2023-03-06T23:55:24.119Z,6.12
2023-03-06T23:57:56.391Z,6.07
